Time;durP1;ratioP1;P1;durP2;ratioP2;P2;SDS_P1;SDS_P2;PMS_P1;PMS_P2;Temp;Humidity;BMP_temperature;BMP_pressure;BME280_temperature;BME280_humidity;BME280_pressure;Samples;Min_cycle;Max_cycle;Signal;HPM_P1;HPM_P2
2023/10/14 00:00:39;;;;;;;3.38;1.25;;;;;;;;;;4989759;28;20413;-89
2023/10/14 00:03:29;;;;;;;3.42;1.38;;;;;;;;;;4992056;28;20062;-88
2023/10/14 00:06:07;;;;;;;6.93;5.05;;;;;;;;;;4992163;28;20363;-86
2023/10/14 00:08:47;;;;;;;3.95;1.40;;;;;;;;;;4992105;28;20512;-87
2023/10/14 00:11:18;;;;;;;3.92;1.58;;;;;;;;;;4992013;28;20527;-85
2023/10/14 00:13:52;;;;;;;5.95;1.98;;;;;;;;;;4990464;28;20081;-88
2023/10/14 00:16:29;;;;;;;6.20;1.70;;;;;;;;;;4990951;28;20046;-85
2023/10/14 00:19:04;;;;;;;6.95;1.83;;;;;;;;;;4991643;28;20050;-87
2023/10/14 00:21:36;;;;;;;3.75;1.45;;;;;;;;;;4991703;28;20047;-85
2023/10/14 00:24:07;;;;;;;6.25;1.70;;;;;;;;;;4994835;28;20062;-87
2023/10/14 00:26:38;;;;;;;5.55;1.70;;;;;;;;;;4996042;28;20049;-87
2023/10/14 00:29:29;;;;;;;8.13;2.08;;;;;;;;;;4995307;28;20053;-86
2023/10/14 00:32:02;;;;;;;3.28;1.40;;;;;;;;;;4993443;28;20050;-88
2023/10/14 00:34:33;;;;;;;5.95;1.60;;;;;;;;;;4977574;28;20065;-86
2023/10/14 00:37:07;;;;;;;6.78;1.50;;;;;;;;;;4994573;28;20057;-86
2023/10/14 00:39:38;;;;;;;7.82;1.92;;;;;;;;;;4977820;28;20049;-88
2023/10/14 00:42:09;;;;;;;3.67;1.50;;;;;;;;;;4993751;28;20507;-89
2023/10/14 00:44:39;;;;;;;5.25;1.67;;;;;;;;;;4993838;28;20054;-86
2023/10/14 00:47:15;;;;;;;4.78;1.95;;;;;;;;;;4995260;28;20046;-86
2023/10/14 00:49:49;;;;;;;5.60;1.65;;;;;;;;;;4992716;28;20046;-87
2023/10/14 00:52:22;;;;;;;6.90;1.50;;;;;;;;;;4994875;28;20046;-88
2023/10/14 00:57:37;;;;;;;6.43;2.45;;;;;;;;;;4994019;28;20461;-87
2023/10/14 01:00:10;;;;;;;9.85;3.63;;;;;;;;;;4992692;28;20052;-87
2023/10/14 01:02:42;;;;;;;5.93;2.28;;;;;;;;;;4994592;28;20505;-87
2023/10/14 01:05:18;;;;;;;13.10;2.47;;;;;;;;;;4979383;28;20602;-88
2023/10/14 01:07:49;;;;;;;5.50;2.42;;;;;;;;;;4996262;28;20065;-87
2023/10/14 01:10:24;;;;;;;4.65;2.17;;;;;;;;;;4997364;28;20050;-87
2023/10/14 01:12:55;;;;;;;4.30;1.83;;;;;;;;;;4996388;28;20066;-87
2023/10/14 01:15:31;;;;;;;5.45;2.10;;;;;;;;;;4995056;28;20046;-86
2023/10/14 01:18:01;;;;;;;7.20;2.10;;;;;;;;;;4994586;28;20062;-86
2023/10/14 01:20:38;;;;;;;10.48;2.08;;;;;;;;;;4994633;28;20047;-88
2023/10/14 01:23:14;;;;;;;6.88;2.42;;;;;;;;;;4995944;28;20062;-87
2023/10/14 01:25:48;;;;;;;7.03;2.88;;;;;;;;;;4992860;28;20393;-87
2023/10/14 01:28:23;;;;;;;7.18;2.40;;;;;;;;;;4992638;28;20104;-89
2023/10/14 01:31:35;;;;;;;5.32;2.85;;;;;;;;;;4992160;28;20054;-87
2023/10/14 01:34:07;;;;;;;6.60;2.30;;;;;;;;;;4992389;28;20069;-87
2023/10/14 01:36:38;;;;;;;5.40;2.40;;;;;;;;;;4992378;28;20054;-87
2023/10/14 01:39:20;;;;;;;5.43;2.63;;;;;;;;;;4991321;28;20421;-89
2023/10/14 01:41:53;;;;;;;3.72;2.10;;;;;;;;;;4993971;28;20046;-87
2023/10/14 01:44:25;;;;;;;5.95;2.30;;;;;;;;;;4991571;28;20054;-88
2023/10/14 01:46:57;;;;;;;5.90;2.08;;;;;;;;;;4994229;28;20057;-87
2023/10/14 01:49:28;;;;;;;15.32;6.68;;;;;;;;;;4992413;28;20058;-88
2023/10/14 01:51:59;;;;;;;11.45;5.22;;;;;;;;;;4992290;28;20049;-87
2023/10/14 01:54:31;;;;;;;17.23;7.60;;;;;;;;;;4994407;28;20058;-86
2023/10/14 01:57:05;;;;;;;12.88;6.00;;;;;;;;;;4992048;28;20498;-86
2023/10/14 01:59:40;;;;;;;12.73;5.72;;;;;;;;;;4992543;28;20050;-86
2023/10/14 02:02:12;;;;;;;11.60;5.13;;;;;;;;;;4996149;28;20065;-86
2023/10/14 02:04:45;;;;;;;11.52;4.97;;;;;;;;;;5011941;28;20034;-86
2023/10/14 02:07:18;;;;;;;9.95;4.10;;;;;;;;;;5016111;28;20046;-85
2023/10/14 02:09:49;;;;;;;8.10;3.97;;;;;;;;;;5015992;28;20040;-85
2023/10/14 02:12:19;;;;;;;8.70;4.13;;;;;;;;;;5017095;28;20026;-86
2023/10/14 02:14:57;;;;;;;10.20;4.05;;;;;;;;;;5017432;28;20058;-86
2023/10/14 02:17:29;;;;;;;8.10;4.03;;;;;;;;;;4992499;28;20064;-87
2023/10/14 02:20:19;;;;;;;11.15;5.18;;;;;;;;;;4994688;28;20050;-87
2023/10/14 02:22:50;;;;;;;12.10;5.85;;;;;;;;;;4993334;28;20046;-88
2023/10/14 02:25:20;;;;;;;15.63;5.63;;;;;;;;;;4992726;28;20061;-88
2023/10/14 02:27:53;;;;;;;12.00;5.20;;;;;;;;;;4976582;28;20061;-86
2023/10/14 02:30:25;;;;;;;12.13;5.55;;;;;;;;;;4992024;28;20062;-88
2023/10/14 02:32:57;;;;;;;11.23;5.18;;;;;;;;;;4975347;28;20057;-89
2023/10/14 02:35:27;;;;;;;9.68;4.55;;;;;;;;;;4992039;28;20051;-89
2023/10/14 02:38:00;;;;;;;10.95;4.22;;;;;;;;;;4993088;28;20038;-88
2023/10/14 02:40:31;;;;;;;13.05;4.50;;;;;;;;;;4992664;28;20051;-88
2023/10/14 02:43:01;;;;;;;11.23;3.92;;;;;;;;;;4991473;28;20054;-87
2023/10/14 02:45:39;;;;;;;9.07;4.30;;;;;;;;;;4983190;28;20053;-89
2023/10/14 02:48:11;;;;;;;8.35;3.35;;;;;;;;;;5023645;28;20054;-89
2023/10/14 02:50:50;;;;;;;10.07;3.55;;;;;;;;;;4991151;28;20586;-87
2023/10/14 02:53:22;;;;;;;8.02;3.78;;;;;;;;;;5029984;28;20050;-87
2023/10/14 02:55:58;;;;;;;6.30;3.10;;;;;;;;;;4998798;28;20055;-86
2023/10/14 02:58:29;;;;;;;8.00;3.00;;;;;;;;;;4991266;28;20050;-86
2023/10/14 03:01:00;;;;;;;7.03;3.05;;;;;;;;;;4991012;28;20062;-87
2023/10/14 03:03:31;;;;;;;7.25;2.60;;;;;;;;;;4975113;28;20477;-86
2023/10/14 03:06:06;;;;;;;6.70;2.75;;;;;;;;;;4990131;28;20054;-86
2023/10/14 03:08:37;;;;;;;6.68;2.60;;;;;;;;;;4991326;28;20062;-87
2023/10/14 03:11:16;;;;;;;7.80;2.70;;;;;;;;;;4989886;28;20050;-87
2023/10/14 03:13:47;;;;;;;11.38;4.15;;;;;;;;;;4992119;28;20046;-87
2023/10/14 03:16:18;;;;;;;6.35;2.30;;;;;;;;;;4992351;28;20054;-88
2023/10/14 03:18:50;;;;;;;10.40;3.00;;;;;;;;;;4974672;28;20061;-86
2023/10/14 03:21:31;;;;;;;6.95;2.53;;;;;;;;;;4990475;28;20046;-86
2023/10/14 03:24:03;;;;;;;5.13;1.85;;;;;;;;;;4990772;28;20405;-87
2023/10/14 03:26:33;;;;;;;4.15;2.17;;;;;;;;;;4991996;28;20413;-87
2023/10/14 03:29:14;;;;;;;6.20;2.30;;;;;;;;;;4992233;28;20065;-87
2023/10/14 03:31:46;;;;;;;4.05;2.10;;;;;;;;;;4990073;28;20058;-90
2023/10/14 03:34:17;;;;;;;7.35;2.28;;;;;;;;;;4992250;28;20548;-88
2023/10/14 03:36:50;;;;;;;4.82;2.05;;;;;;;;;;4992814;28;20043;-88
2023/10/14 03:39:37;;;;;;;4.72;2.42;;;;;;;;;;4990363;28;20046;-86
2023/10/14 03:42:11;;;;;;;5.32;2.00;;;;;;;;;;4990750;28;20051;-87
2023/10/14 03:44:47;;;;;;;5.60;2.10;;;;;;;;;;4991907;28;20057;-88
2023/10/14 03:47:17;;;;;;;5.35;1.73;;;;;;;;;;4989467;28;20069;-86
2023/10/14 03:49:55;;;;;;;6.35;1.98;;;;;;;;;;5013738;28;20496;-86
2023/10/14 03:52:26;;;;;;;6.80;2.28;;;;;;;;;;5012422;28;20054;-88
2023/10/14 03:54:57;;;;;;;5.85;1.83;;;;;;;;;;5011713;28;20049;-86
2023/10/14 03:57:37;;;;;;;5.80;2.45;;;;;;;;;;5013201;28;20049;-86
2023/10/14 04:00:12;;;;;;;9.05;2.00;;;;;;;;;;5015621;28;20049;-86
2023/10/14 04:02:43;;;;;;;5.63;1.98;;;;;;;;;;5015938;28;20046;-87
2023/10/14 04:05:18;;;;;;;7.72;2.58;;;;;;;;;;5017495;28;20050;-88
2023/10/14 04:07:48;;;;;;;6.13;1.70;;;;;;;;;;4999214;28;20061;-87
2023/10/14 04:10:23;;;;;;;6.70;2.00;;;;;;;;;;5016687;28;20073;-87
2023/10/14 04:12:53;;;;;;;5.25;2.88;;;;;;;;;;5015236;28;20428;-88
2023/10/14 04:15:34;;;;;;;5.55;1.73;;;;;;;;;;5016015;28;20077;-88
2023/10/14 04:18:12;;;;;;;5.70;2.08;;;;;;;;;;5015219;28;20049;-87
2023/10/14 04:20:46;;;;;;;4.82;1.80;;;;;;;;;;5015588;28;20042;-87
2023/10/14 04:23:27;;;;;;;6.32;2.05;;;;;;;;;;5014987;28;20054;-87
2023/10/14 04:26:11;;;;;;;3.80;1.88;;;;;;;;;;5017067;28;20048;-88
2023/10/14 04:28:53;;;;;;;5.68;1.88;;;;;;;;;;5016911;28;20037;-88
2023/10/14 04:31:34;;;;;;;5.38;1.92;;;;;;;;;;5016990;28;20456;-88
2023/10/14 04:34:15;;;;;;;5.15;1.75;;;;;;;;;;5014792;28;20053;-88
2023/10/14 04:36:53;;;;;;;6.30;2.00;;;;;;;;;;5014597;28;20049;-87
2023/10/14 04:39:32;;;;;;;3.08;1.80;;;;;;;;;;5014157;28;20068;-88
2023/10/14 04:44:59;;;;;;;4.40;1.83;;;;;;;;;;5014412;28;20069;-86
2023/10/14 04:47:38;;;;;;;6.20;1.95;;;;;;;;;;5016551;28;20049;-87
2023/10/14 04:50:21;;;;;;;5.07;1.83;;;;;;;;;;5016119;28;20053;-87
2023/10/14 04:52:51;;;;;;;6.75;2.08;;;;;;;;;;5014960;28;20046;-87
2023/10/14 04:58:12;;;;;;;3.33;1.42;;;;;;;;;;5014694;28;20046;-88
2023/10/14 05:00:44;;;;;;;5.55;1.63;;;;;;;;;;5015936;28;20054;-89
2023/10/14 05:03:22;;;;;;;6.72;1.60;;;;;;;;;;5015229;28;20480;-87
2023/10/14 05:05:56;;;;;;;3.53;1.85;;;;;;;;;;5013654;28;20060;-88
2023/10/14 05:08:44;;;;;;;5.25;1.50;;;;;;;;;;5010990;28;20054;-87
2023/10/14 05:11:19;;;;;;;6.57;1.60;;;;;;;;;;4995878;28;20050;-87
2023/10/14 05:16:53;;;;;;;8.45;1.70;;;;;;;;;;4996179;28;20046;-88
2023/10/14 05:19:25;;;;;;;3.75;1.85;;;;;;;;;;4995647;28;20393;-88
2023/10/14 05:24:52;;;;;;;6.15;1.40;;;;;;;;;;4989469;28;20078;-88
2023/10/14 05:27:35;;;;;;;5.55;1.42;;;;;;;;;;4994698;28;20057;-89
2023/10/14 05:30:06;;;;;;;4.13;1.20;;;;;;;;;;4996203;28;20065;-88
2023/10/14 05:32:38;;;;;;;8.68;1.40;;;;;;;;;;4996031;28;20057;-88
2023/10/14 05:35:09;;;;;;;5.43;1.17;;;;;;;;;;4995863;28;20118;-88
2023/10/14 05:37:45;;;;;;;3.80;1.48;;;;;;;;;;4995936;28;20049;-88
2023/10/14 05:40:15;;;;;;;3.28;0.95;;;;;;;;;;4995888;28;20489;-89
2023/10/14 05:42:45;;;;;;;3.50;1.10;;;;;;;;;;4994897;28;20046;-88
2023/10/14 05:45:17;;;;;;;5.68;1.42;;;;;;;;;;4995493;28;20046;-89
2023/10/14 05:47:48;;;;;;;3.70;1.35;;;;;;;;;;4993894;28;20050;-88
2023/10/14 05:50:19;;;;;;;2.88;1.10;;;;;;;;;;4994530;28;20046;-89
2023/10/14 05:52:52;;;;;;;6.78;1.30;;;;;;;;;;4993875;28;20050;-88
2023/10/14 05:55:22;;;;;;;4.45;1.42;;;;;;;;;;4994726;28;20050;-88
2023/10/14 05:57:53;;;;;;;3.53;1.30;;;;;;;;;;4996888;28;20046;-87
2023/10/14 06:00:27;;;;;;;2.63;1.10;;;;;;;;;;4996095;28;20054;-88
2023/10/14 06:02:59;;;;;;;2.85;1.17;;;;;;;;;;4993881;28;20054;-89
2023/10/14 06:05:32;;;;;;;4.32;1.30;;;;;;;;;;4994405;28;20042;-88
2023/10/14 06:08:06;;;;;;;5.65;1.13;;;;;;;;;;4977913;28;20046;-89
2023/10/14 06:10:36;;;;;;;2.92;1.05;;;;;;;;;;4993423;28;20050;-88
2023/10/14 06:13:06;;;;;;;3.72;1.10;;;;;;;;;;4993244;28;20049;-89
2023/10/14 06:15:40;;;;;;;3.88;1.30;;;;;;;;;;4993595;28;20058;-89
2023/10/14 06:18:14;;;;;;;5.68;1.60;;;;;;;;;;4994105;28;20049;-88
2023/10/14 06:20:47;;;;;;;6.18;1.38;;;;;;;;;;4993044;28;20073;-89
2023/10/14 06:23:18;;;;;;;7.88;1.38;;;;;;;;;;4993189;28;20061;-88
2023/10/14 06:25:48;;;;;;;4.97;1.55;;;;;;;;;;4977646;28;20065;-88
2023/10/14 06:28:19;;;;;;;4.10;1.42;;;;;;;;;;4996178;28;20164;-88
2023/10/14 06:30:51;;;;;;;3.78;1.13;;;;;;;;;;4996314;28;20057;-88
2023/10/14 06:33:26;;;;;;;4.22;1.20;;;;;;;;;;4994948;28;20046;-89
2023/10/14 06:36:03;;;;;;;7.38;1.52;;;;;;;;;;4993011;28;20053;-88
2023/10/14 06:38:36;;;;;;;6.55;1.20;;;;;;;;;;4998585;28;20047;-87
2023/10/14 06:41:11;;;;;;;4.55;1.10;;;;;;;;;;5018375;28;20033;-86
2023/10/14 06:43:43;;;;;;;4.90;1.10;;;;;;;;;;5018667;28;20026;-88
2023/10/14 06:46:16;;;;;;;2.88;1.00;;;;;;;;;;5018785;28;20035;-86
2023/10/14 06:48:52;;;;;;;4.05;1.33;;;;;;;;;;5017667;28;20030;-88
2023/10/14 06:51:22;;;;;;;3.35;1.20;;;;;;;;;;4994513;28;20050;-88
2023/10/14 06:53:55;;;;;;;3.88;1.05;;;;;;;;;;4993659;28;20054;-88
2023/10/14 06:56:27;;;;;;;3.08;1.23;;;;;;;;;;4977427;28;20046;-88
2023/10/14 06:58:57;;;;;;;2.58;0.98;;;;;;;;;;4976351;28;20054;-88
2023/10/14 07:01:28;;;;;;;4.10;0.93;;;;;;;;;;4993041;28;20054;-89
2023/10/14 07:04:00;;;;;;;2.35;0.90;;;;;;;;;;4993200;28;20050;-88
2023/10/14 07:06:31;;;;;;;2.78;1.13;;;;;;;;;;4995204;28;20046;-88
2023/10/14 07:09:05;;;;;;;2.67;1.20;;;;;;;;;;4992616;28;20058;-87
2023/10/14 07:11:39;;;;;;;7.03;1.20;;;;;;;;;;4993637;28;20050;-89
2023/10/14 07:14:09;;;;;;;5.75;1.63;;;;;;;;;;4993047;28;20054;-88
2023/10/14 07:16:42;;;;;;;2.60;1.10;;;;;;;;;;4992223;28;20050;-90
2023/10/14 07:19:14;;;;;;;5.53;1.25;;;;;;;;;;4993285;28;20367;-89
2023/10/14 07:21:44;;;;;;;2.97;1.17;;;;;;;;;;4994329;28;20481;-89
2023/10/14 07:24:16;;;;;;;2.17;1.15;;;;;;;;;;4993077;28;20439;-88
2023/10/14 07:26:47;;;;;;;3.53;0.85;;;;;;;;;;4992692;28;20366;-90
2023/10/14 07:29:20;;;;;;;1.88;1.05;;;;;;;;;;4976522;28;20065;-90
2023/10/14 07:31:50;;;;;;;5.63;1.13;;;;;;;;;;4993040;28;20049;-90
2023/10/14 07:34:22;;;;;;;3.63;1.20;;;;;;;;;;4995447;28;20073;-90
2023/10/14 07:36:53;;;;;;;4.47;1.13;;;;;;;;;;4981638;28;20054;-89
2023/10/14 07:39:30;;;;;;;7.43;1.10;;;;;;;;;;4997079;28;20417;-90
2023/10/14 07:42:09;;;;;;;3.13;0.95;;;;;;;;;;4980977;28;20060;-89
2023/10/14 07:44:39;;;;;;;4.78;1.50;;;;;;;;;;4996978;28;20370;-88
2023/10/14 07:47:10;;;;;;;2.88;0.90;;;;;;;;;;4996029;28;20062;-89
2023/10/14 07:49:44;;;;;;;4.30;1.10;;;;;;;;;;4996630;28;20520;-89
2023/10/14 07:52:15;;;;;;;2.50;1.15;;;;;;;;;;4996787;28;20057;-90
2023/10/14 08:13:08;;;;;;;4.50;0.80;;;;;;;;;;4957670;28;20044;-90
2023/10/14 08:17:11;;;;;;;4.25;1.02;;;;;;;;;;4918916;29;20060;-90
2023/10/14 08:20:43;;;;;;;1.63;0.60;;;;;;;;;;4899998;29;20044;-89
2023/10/14 08:54:32;;;;;;;1.85;1.17;;;;;;;;;;4967024;28;20038;-90
2023/10/14 09:01:55;;;;;;;2.58;0.88;;;;;;;;;;4979370;28;20042;-91
2023/10/14 09:05:00;;;;;;;4.03;0.88;;;;;;;;;;4978249;28;20050;-89
2023/10/14 09:08:19;;;;;;;4.50;1.20;;;;;;;;;;4961387;28;20054;-90
2023/10/14 09:48:15;;;;;;;2.90;1.75;;;;;;;;;;4964812;28;19929;-89
2023/10/14 09:50:48;;;;;;;3.17;1.05;;;;;;;;;;4962198;28;20158;-88
2023/10/14 09:53:20;;;;;;;5.18;0.90;;;;;;;;;;4978108;28;20065;-89
2023/10/14 09:55:52;;;;;;;4.15;1.00;;;;;;;;;;4976781;28;20074;-88
2023/10/14 09:58:30;;;;;;;2.83;0.90;;;;;;;;;;4978832;28;20051;-88
2023/10/14 10:01:05;;;;;;;5.70;0.85;;;;;;;;;;4978132;28;20070;-89
2023/10/14 10:03:50;;;;;;;3.28;0.82;;;;;;;;;;4979047;28;20069;-90
2023/10/14 10:06:49;;;;;;;2.03;0.95;;;;;;;;;;4994714;28;20516;-90
2023/10/14 10:09:57;;;;;;;6.90;1.15;;;;;;;;;;4977993;28;20049;-89
2023/10/14 10:12:30;;;;;;;3.25;2.50;;;;;;;;;;4980325;28;20514;-89
2023/10/14 10:15:02;;;;;;;5.28;1.63;;;;;;;;;;4996470;28;20050;-89
2023/10/14 10:17:39;;;;;;;3.05;1.17;;;;;;;;;;4962341;28;20054;-90
2023/10/14 10:20:17;;;;;;;2.63;1.20;;;;;;;;;;4978669;28;20062;-89
2023/10/14 10:22:52;;;;;;;2.47;1.05;;;;;;;;;;4978376;28;20047;-88
2023/10/14 10:25:47;;;;;;;3.20;1.50;;;;;;;;;;4981727;28;20066;-89
2023/10/14 10:28:27;;;;;;;2.80;1.50;;;;;;;;;;4977191;28;20061;-88
2023/10/14 10:31:13;;;;;;;4.72;1.23;;;;;;;;;;4994766;28;20047;-89
2023/10/14 10:34:00;;;;;;;2.70;1.30;;;;;;;;;;4994161;28;20043;-88
2023/10/14 10:36:33;;;;;;;5.13;1.20;;;;;;;;;;4993525;28;20051;-91
2023/10/14 10:39:17;;;;;;;2.38;1.20;;;;;;;;;;4994088;28;20049;-90
2023/10/14 10:41:53;;;;;;;6.22;1.40;;;;;;;;;;4973981;28;20062;-90
2023/10/14 10:44:29;;;;;;;2.95;1.10;;;;;;;;;;4975481;28;20053;-89
2023/10/14 10:47:02;;;;;;;2.08;1.20;;;;;;;;;;4957823;28;20055;-89
2023/10/14 10:49:58;;;;;;;2.72;1.10;;;;;;;;;;4958235;28;20509;-90
2023/10/14 10:52:36;;;;;;;4.20;1.17;;;;;;;;;;4973702;28;20501;-89
2023/10/14 10:55:07;;;;;;;0.73;0.43;;;;;;;;;;4973480;28;20049;-86
2023/10/14 10:57:44;;;;;;;3.40;0.47;;;;;;;;;;5002078;28;20033;-86
2023/10/14 11:00:17;;;;;;;1.25;0.70;;;;;;;;;;5015797;28;20018;-86
2023/10/14 11:02:54;;;;;;;0.55;0.35;;;;;;;;;;4999711;28;20031;-88
2023/10/14 11:05:25;;;;;;;0.95;0.40;;;;;;;;;;4999634;28;20044;-88
2023/10/14 11:07:59;;;;;;;2.35;0.70;;;;;;;;;;4999171;28;20022;-86
2023/10/14 11:10:31;;;;;;;2.65;0.40;;;;;;;;;;5001384;28;20050;-86
2023/10/14 11:13:03;;;;;;;3.13;0.50;;;;;;;;;;4988260;28;20046;-87
2023/10/14 11:15:34;;;;;;;1.52;0.50;;;;;;;;;;4972957;28;20057;-87
2023/10/14 11:18:05;;;;;;;2.17;0.50;;;;;;;;;;4971800;28;20062;-85
2023/10/14 11:20:45;;;;;;;1.60;0.50;;;;;;;;;;4972060;28;20058;-87
2023/10/14 11:23:17;;;;;;;0.75;0.40;;;;;;;;;;4971218;28;20059;-88
2023/10/14 11:25:53;;;;;;;2.05;0.40;;;;;;;;;;4971345;28;20054;-87
2023/10/14 11:28:26;;;;;;;0.77;0.40;;;;;;;;;;4954716;28;20055;-88
2023/10/14 11:30:58;;;;;;;1.48;0.40;;;;;;;;;;4973000;28;20043;-86
2023/10/14 11:33:28;;;;;;;;;;;;;;;;;;4971027;28;20057;-87
2023/10/14 11:35:58;;;;;;;0.38;0.20;;;;;;;;;;4955709;28;19922;-86
2023/10/14 11:38:31;;;;;;;0.60;0.40;;;;;;;;;;4955164;28;20054;-89
2023/10/14 11:41:02;;;;;;;1.15;0.40;;;;;;;;;;4962766;28;20062;-88
2023/10/14 11:43:33;;;;;;;1.33;0.40;;;;;;;;;;4990106;28;20062;-87
2023/10/14 11:46:03;;;;;;;0.60;0.40;;;;;;;;;;4992331;28;20054;-86
2023/10/14 11:48:36;;;;;;;2.42;0.32;;;;;;;;;;4990139;28;20062;-88
2023/10/14 11:51:11;;;;;;;0.77;0.43;;;;;;;;;;4990367;28;20412;-86
2023/10/14 11:53:45;;;;;;;1.42;0.40;;;;;;;;;;4990778;28;20062;-86
2023/10/14 11:56:15;;;;;;;0.82;0.30;;;;;;;;;;4991937;28;20039;-87
2023/10/14 11:58:45;;;;;;;1.20;0.52;;;;;;;;;;4990192;28;20056;-86
2023/10/14 12:01:17;;;;;;;1.35;0.60;;;;;;;;;;4991427;28;20053;-88
2023/10/14 12:03:49;;;;;;;1.13;0.52;;;;;;;;;;4991593;28;20062;-87
2023/10/14 12:06:19;;;;;;;1.45;0.30;;;;;;;;;;4990391;28;20055;-86
2023/10/14 12:08:52;;;;;;;1.38;0.32;;;;;;;;;;4992011;28;20498;-87
2023/10/14 12:11:24;;;;;;;1.98;0.52;;;;;;;;;;4991328;28;20410;-85
2023/10/14 12:13:54;;;;;;;1.02;0.55;;;;;;;;;;4980557;28;20055;-87
2023/10/14 12:16:26;;;;;;;1.15;0.40;;;;;;;;;;4972397;28;20043;-86
2023/10/14 12:18:59;;;;;;;2.33;0.50;;;;;;;;;;4973445;28;20062;-87
2023/10/14 12:21:29;;;;;;;1.20;0.50;;;;;;;;;;4974247;28;20043;-87
2023/10/14 12:24:02;;;;;;;2.63;0.38;;;;;;;;;;4975218;28;20043;-88
2023/10/14 12:26:35;;;;;;;1.15;0.60;;;;;;;;;;4973861;28;20513;-87
2023/10/14 12:29:09;;;;;;;2.15;0.30;;;;;;;;;;4977461;28;20066;-85
2023/10/14 12:31:44;;;;;;;;;;;;;;;;;;5002307;28;20053;-86
2023/10/14 12:34:16;;;;;;;0.95;0.38;;;;;;;;;;4993172;28;19922;-86
2023/10/14 12:36:47;;;;;;;1.90;0.35;;;;;;;;;;4994833;28;20042;-85
2023/10/14 12:39:21;;;;;;;2.25;0.50;;;;;;;;;;4994586;28;20058;-85
2023/10/14 12:41:53;;;;;;;1.98;0.52;;;;;;;;;;4994229;28;20073;-85
2023/10/14 12:44:23;;;;;;;1.10;0.40;;;;;;;;;;4993076;28;20050;-84
2023/10/14 12:46:55;;;;;;;0.88;0.40;;;;;;;;;;4993887;28;20139;-85
2023/10/14 12:49:26;;;;;;;1.17;0.50;;;;;;;;;;4994925;28;20067;-84
2023/10/14 12:52:05;;;;;;;0.95;0.40;;;;;;;;;;4993157;28;20516;-83
2023/10/14 12:54:35;;;;;;;;;;;;;;;;;;4994822;28;20063;-84
2023/10/14 12:57:08;;;;;;;1.17;0.85;;;;;;;;;;5008731;28;19922;-85
2023/10/14 12:59:41;;;;;;;1.40;0.63;;;;;;;;;;4994619;28;20043;-85
2023/10/14 13:02:11;;;;;;;0.95;0.28;;;;;;;;;;5003080;28;20054;-86
2023/10/14 13:04:44;;;;;;;8.57;3.70;;;;;;;;;;5015584;28;20050;-87
2023/10/14 13:07:15;;;;;;;1.73;0.50;;;;;;;;;;5014968;28;20061;-87
2023/10/14 13:09:45;;;;;;;3.92;2.33;;;;;;;;;;5013965;28;20065;-85
2023/10/14 13:12:18;;;;;;;1.15;0.50;;;;;;;;;;5014322;28;20061;-84
2023/10/14 13:14:48;;;;;;;0.75;0.52;;;;;;;;;;5014790;28;20049;-85
2023/10/14 13:17:19;;;;;;;1.48;0.60;;;;;;;;;;5016223;28;20065;-85
2023/10/14 13:19:49;;;;;;;2.75;1.13;;;;;;;;;;5015896;28;20048;-85
2023/10/14 13:22:19;;;;;;;2.97;0.70;;;;;;;;;;5013915;28;20432;-85
2023/10/14 13:24:51;;;;;;;10.65;3.33;;;;;;;;;;5015675;28;20050;-85
2023/10/14 13:27:22;;;;;;;5.65;2.92;;;;;;;;;;5014237;28;20046;-85
2023/10/14 13:29:52;;;;;;;4.70;1.90;;;;;;;;;;5013778;28;20057;-86
2023/10/14 13:32:24;;;;;;;1.92;0.82;;;;;;;;;;5014159;28;20512;-85
2023/10/14 13:34:57;;;;;;;2.88;0.80;;;;;;;;;;5005372;28;20053;-85
2023/10/14 13:37:28;;;;;;;3.50;1.45;;;;;;;;;;4992814;28;20068;-86
2023/10/14 13:39:58;;;;;;;1.65;0.60;;;;;;;;;;4995091;28;20054;-85
2023/10/14 13:42:29;;;;;;;1.35;0.70;;;;;;;;;;4992127;28;20043;-86
2023/10/14 13:44:58;;;;;;;1.95;0.57;;;;;;;;;;4991781;28;20057;-85
2023/10/14 13:47:29;;;;;;;2.50;0.63;;;;;;;;;;4992581;28;20501;-85
2023/10/14 13:49:59;;;;;;;2.25;0.63;;;;;;;;;;4993309;28;20073;-85
2023/10/14 13:52:32;;;;;;;0.65;0.40;;;;;;;;;;4991687;28;20418;-85
2023/10/14 13:55:04;;;;;;;1.38;0.60;;;;;;;;;;4991441;28;20066;-85
2023/10/14 13:57:35;;;;;;;2.13;0.60;;;;;;;;;;4988243;28;20066;-85
2023/10/14 14:00:07;;;;;;;2.38;0.60;;;;;;;;;;4983187;28;20540;-85
2023/10/14 14:02:40;;;;;;;1.85;0.85;;;;;;;;;;4978255;28;20058;-84
2023/10/14 14:05:12;;;;;;;2.50;1.25;;;;;;;;;;4973944;28;20046;-84
2023/10/14 14:07:43;;;;;;;2.67;0.80;;;;;;;;;;4971978;28;20066;-85
2023/10/14 14:10:16;;;;;;;1.92;1.27;;;;;;;;;;4973685;28;20043;-85
2023/10/14 14:12:46;;;;;;;3.25;0.80;;;;;;;;;;4971609;28;20403;-84
2023/10/14 14:15:16;;;;;;;1.63;0.60;;;;;;;;;;4973413;28;20066;-85
2023/10/14 14:17:48;;;;;;;1.33;0.40;;;;;;;;;;4973047;28;20058;-87
2023/10/14 14:20:18;;;;;;;3.53;0.60;;;;;;;;;;4955929;28;20058;-85
2023/10/14 14:22:49;;;;;;;1.00;0.50;;;;;;;;;;4972852;28;20054;-85
2023/10/14 14:25:21;;;;;;;1.30;0.50;;;;;;;;;;4973586;28;20047;-85
2023/10/14 14:27:53;;;;;;;1.63;0.63;;;;;;;;;;4973553;28;20059;-85
2023/10/14 14:30:27;;;;;;;1.25;0.60;;;;;;;;;;4973032;28;20054;-85
2023/10/14 14:33:01;;;;;;;1.45;0.60;;;;;;;;;;4972637;28;20058;-82
2023/10/14 14:35:31;;;;;;;1.23;0.65;;;;;;;;;;4972821;28;20057;-84
2023/10/14 14:38:02;;;;;;;1.90;0.60;;;;;;;;;;4973237;28;20387;-84
2023/10/14 14:40:33;;;;;;;3.60;0.93;;;;;;;;;;4971281;28;20058;-85
2023/10/14 14:43:04;;;;;;;2.10;1.05;;;;;;;;;;4970469;28;20074;-87
2023/10/14 14:45:35;;;;;;;2.22;0.75;;;;;;;;;;4972432;28;20039;-85
2023/10/14 14:48:06;;;;;;;2.47;0.85;;;;;;;;;;4972947;28;20391;-84
2023/10/14 14:50:37;;;;;;;3.17;0.68;;;;;;;;;;4972592;28;20039;-85
2023/10/14 14:53:08;;;;;;;2.95;0.63;;;;;;;;;;4985648;28;20053;-86
2023/10/14 14:55:42;;;;;;;1.10;0.40;;;;;;;;;;4992362;28;20069;-86
2023/10/14 14:58:14;;;;;;;2.08;0.68;;;;;;;;;;4992071;28;20053;-87
2023/10/14 15:00:45;;;;;;;1.65;0.60;;;;;;;;;;4973788;28;20058;-86
2023/10/14 15:03:20;;;;;;;3.03;0.70;;;;;;;;;;4992214;28;20046;-87
2023/10/14 15:05:50;;;;;;;1.08;0.50;;;;;;;;;;4992581;28;20062;-87
2023/10/14 15:08:23;;;;;;;1.20;0.70;;;;;;;;;;4992479;28;20042;-86
2023/10/14 15:10:55;;;;;;;1.40;0.60;;;;;;;;;;4991932;28;20054;-86
2023/10/14 15:13:25;;;;;;;;;;;;;;;;;;4990762;28;20398;-86
2023/10/14 15:15:56;;;;;;;2.78;0.60;;;;;;;;;;4990352;28;19922;-86
2023/10/14 15:18:27;;;;;;;3.20;1.25;;;;;;;;;;4990537;28;20042;-84
2023/10/14 15:20:58;;;;;;;1.25;0.52;;;;;;;;;;4991434;28;20065;-88
2023/10/14 15:23:30;;;;;;;2.53;1.08;;;;;;;;;;4990849;28;20393;-88
2023/10/14 15:26:01;;;;;;;5.10;0.85;;;;;;;;;;4992403;28;20494;-87
2023/10/14 15:28:31;;;;;;;0.77;0.50;;;;;;;;;;4992266;28;20054;-86
2023/10/14 15:31:07;;;;;;;2.72;0.65;;;;;;;;;;4992329;28;20058;-88
2023/10/14 15:33:38;;;;;;;0.95;0.50;;;;;;;;;;4991996;28;20397;-85
2023/10/14 15:36:11;;;;;;;2.53;1.02;;;;;;;;;;4992596;28;20062;-86
2023/10/14 15:38:43;;;;;;;2.33;1.02;;;;;;;;;;4991525;28;20045;-87
2023/10/14 15:41:13;;;;;;;2.15;0.50;;;;;;;;;;5006782;28;20058;-85
2023/10/14 15:43:43;;;;;;;1.98;0.70;;;;;;;;;;4989891;28;20511;-85
2023/10/14 15:46:13;;;;;;;4.68;0.65;;;;;;;;;;4990807;28;20058;-85
2023/10/14 15:48:45;;;;;;;1.58;0.60;;;;;;;;;;5007005;28;20057;-87
2023/10/14 15:51:19;;;;;;;2.83;1.02;;;;;;;;;;4991808;28;20436;-86
2023/10/14 15:53:53;;;;;;;4.78;0.60;;;;;;;;;;4972157;28;20047;-83
2023/10/14 15:56:23;;;;;;;3.45;0.55;;;;;;;;;;4973844;28;20051;-86
2023/10/14 15:58:53;;;;;;;2.88;0.73;;;;;;;;;;4976734;28;20042;-85
2023/10/14 16:01:25;;;;;;;3.30;0.70;;;;;;;;;;4974920;28;20055;-85
2023/10/14 16:03:56;;;;;;;2.88;0.68;;;;;;;;;;4976338;28;20069;-86
2023/10/14 16:06:29;;;;;;;2.42;0.73;;;;;;;;;;4974120;28;20047;-83
2023/10/14 16:08:59;;;;;;;1.10;0.50;;;;;;;;;;4994338;28;20531;-88
2023/10/14 16:11:29;;;;;;;1.45;0.70;;;;;;;;;;4996217;28;20050;-87
2023/10/14 16:14:02;;;;;;;1.05;0.60;;;;;;;;;;4995056;28;20059;-87
2023/10/14 16:16:33;;;;;;;3.00;0.70;;;;;;;;;;4995574;28;20050;-88
2023/10/14 16:19:04;;;;;;;1.92;0.95;;;;;;;;;;4995086;28;20417;-86
2023/10/14 16:21:37;;;;;;;1.55;0.60;;;;;;;;;;4995540;28;20046;-85
2023/10/14 16:24:07;;;;;;;2.80;0.60;;;;;;;;;;5012607;28;20049;-84
2023/10/14 16:26:37;;;;;;;2.38;0.80;;;;;;;;;;5017812;28;20037;-84
2023/10/14 16:29:08;;;;;;;2.72;1.17;;;;;;;;;;5019062;28;20034;-84
2023/10/14 16:31:42;;;;;;;2.10;0.77;;;;;;;;;;5018409;28;20030;-85
2023/10/14 16:34:14;;;;;;;3.40;0.60;;;;;;;;;;5015924;28;20038;-83
2023/10/14 16:36:45;;;;;;;3.20;0.50;;;;;;;;;;5008072;28;20030;-85
2023/10/14 16:39:15;;;;;;;1.67;0.70;;;;;;;;;;4998805;28;20057;-84
2023/10/14 16:41:47;;;;;;;1.77;0.80;;;;;;;;;;4985360;28;20065;-85
2023/10/14 16:44:18;;;;;;;2.67;0.90;;;;;;;;;;4959606;28;20080;-86
2023/10/14 16:46:49;;;;;;;1.63;0.77;;;;;;;;;;4986942;28;20523;-85
2023/10/14 16:49:20;;;;;;;1.75;0.65;;;;;;;;;;4997939;28;20532;-86
2023/10/14 16:51:52;;;;;;;1.73;0.82;;;;;;;;;;4993569;28;20046;-86
2023/10/14 16:54:22;;;;;;;2.92;0.65;;;;;;;;;;4992899;28;20049;-84
2023/10/14 16:56:52;;;;;;;1.38;0.70;;;;;;;;;;4993004;28;20057;-84
2023/10/14 16:59:23;;;;;;;1.77;0.60;;;;;;;;;;4993698;28;20050;-86
2023/10/14 17:01:54;;;;;;;1.77;0.68;;;;;;;;;;4997565;28;20047;-83
2023/10/14 17:04:25;;;;;;;1.80;0.65;;;;;;;;;;4998145;28;20516;-85
2023/10/14 17:06:55;;;;;;;1.45;0.70;;;;;;;;;;4994831;28;20062;-83
2023/10/14 17:09:27;;;;;;;2.42;0.70;;;;;;;;;;4987683;28;20043;-86